sensor_id;sensor_type;location;lat;lon;timestamp;P1;durP1;ratioP1;P2;durP2;ratioP2
3311;SDS011;1668;49.648;8.570;2022-07-23T00:00:06;7.73;;;6.17;;
3311;SDS011;1668;49.648;8.570;2022-07-23T00:02:34;8.63;;;6.47;;
3311;SDS011;1668;49.648;8.570;2022-07-23T00:05:01;8.93;;;6.63;;
3311;SDS011;1668;49.648;8.570;2022-07-23T00:07:28;7.30;;;6.40;;
3311;SDS011;1668;49.648;8.570;2022-07-23T00:09:57;9.73;;;6.67;;
3311;SDS011;1668;49.648;8.570;2022-07-23T00:12:24;7.40;;;6.60;;
3311;SDS011;1668;49.648;8.570;2022-07-23T00:14:51;8.43;;;6.13;;
3311;SDS011;1668;49.648;8.570;2022-07-23T00:17:18;8.73;;;6.07;;
3311;SDS011;1668;49.648;8.570;2022-07-23T00:19:45;7.00;;;6.17;;
3311;SDS011;1668;49.648;8.570;2022-07-23T00:22:12;7.83;;;5.87;;
3311;SDS011;1668;49.648;8.570;2022-07-23T00:24:39;7.30;;;5.80;;
3311;SDS011;1668;49.648;8.570;2022-07-23T00:27:07;6.23;;;5.63;;
3311;SDS011;1668;49.648;8.570;2022-07-23T00:29:34;7.03;;;6.00;;
3311;SDS011;1668;49.648;8.570;2022-07-23T00:32:01;8.00;;;6.00;;
3311;SDS011;1668;49.648;8.570;2022-07-23T00:34:27;13.73;;;6.23;;
3311;SDS011;1668;49.648;8.570;2022-07-23T00:36:54;7.97;;;6.20;;
3311;SDS011;1668;49.648;8.570;2022-07-23T00:39:21;6.43;;;5.30;;
3311;SDS011;1668;49.648;8.570;2022-07-23T00:41:48;7.20;;;5.43;;
3311;SDS011;1668;49.648;8.570;2022-07-23T00:44:18;8.57;;;5.50;;
3311;SDS011;1668;49.648;8.570;2022-07-23T00:46:46;7.03;;;5.87;;
3311;SDS011;1668;49.648;8.570;2022-07-23T00:49:14;7.60;;;5.63;;
3311;SDS011;1668;49.648;8.570;2022-07-23T00:51:41;6.13;;;5.53;;
3311;SDS011;1668;49.648;8.570;2022-07-23T00:54:08;6.87;;;5.73;;
3311;SDS011;1668;49.648;8.570;2022-07-23T00:56:35;9.13;;;5.73;;
3311;SDS011;1668;49.648;8.570;2022-07-23T00:59:03;8.77;;;6.10;;
3311;SDS011;1668;49.648;8.570;2022-07-23T01:01:32;6.10;;;5.23;;
3311;SDS011;1668;49.648;8.570;2022-07-23T01:03:59;6.90;;;5.70;;
3311;SDS011;1668;49.648;8.570;2022-07-23T01:06:26;7.00;;;5.50;;
3311;SDS011;1668;49.648;8.570;2022-07-23T01:08:53;10.73;;;5.87;;
3311;SDS011;1668;49.648;8.570;2022-07-23T01:11:22;10.23;;;5.60;;
3311;SDS011;1668;49.648;8.570;2022-07-23T01:13:50;8.40;;;5.67;;
3311;SDS011;1668;49.648;8.570;2022-07-23T01:16:19;6.23;;;5.63;;
3311;SDS011;1668;49.648;8.570;2022-07-23T01:18:47;6.40;;;5.23;;
3311;SDS011;1668;49.648;8.570;2022-07-23T01:21:14;5.53;;;4.90;;
3311;SDS011;1668;49.648;8.570;2022-07-23T01:23:45;8.70;;;5.40;;
3311;SDS011;1668;49.648;8.570;2022-07-23T01:26:12;9.43;;;5.70;;
3311;SDS011;1668;49.648;8.570;2022-07-23T01:28:42;6.53;;;5.33;;
3311;SDS011;1668;49.648;8.570;2022-07-23T01:31:09;6.17;;;5.13;;
3311;SDS011;1668;49.648;8.570;2022-07-23T01:33:36;10.07;;;5.93;;
3311;SDS011;1668;49.648;8.570;2022-07-23T01:36:03;5.80;;;4.50;;
3311;SDS011;1668;49.648;8.570;2022-07-23T01:38:30;7.60;;;6.10;;
3311;SDS011;1668;49.648;8.570;2022-07-23T01:40:58;8.43;;;5.47;;
3311;SDS011;1668;49.648;8.570;2022-07-23T01:43:25;6.60;;;5.13;;
3311;SDS011;1668;49.648;8.570;2022-07-23T01:45:52;6.03;;;4.90;;
3311;SDS011;1668;49.648;8.570;2022-07-23T01:48:19;7.53;;;5.30;;
3311;SDS011;1668;49.648;8.570;2022-07-23T01:50:46;6.10;;;4.80;;
3311;SDS011;1668;49.648;8.570;2022-07-23T01:53:13;8.17;;;5.93;;
3311;SDS011;1668;49.648;8.570;2022-07-23T01:55:41;6.27;;;5.63;;
3311;SDS011;1668;49.648;8.570;2022-07-23T01:58:09;6.93;;;5.10;;
3311;SDS011;1668;49.648;8.570;2022-07-23T02:00:36;7.50;;;6.00;;
3311;SDS011;1668;49.648;8.570;2022-07-23T02:03:03;5.93;;;5.33;;
3311;SDS011;1668;49.648;8.570;2022-07-23T02:05:30;7.93;;;5.50;;
3311;SDS011;1668;49.648;8.570;2022-07-23T02:07:57;5.90;;;5.30;;
3311;SDS011;1668;49.648;8.570;2022-07-23T02:10:25;7.60;;;5.77;;
3311;SDS011;1668;49.648;8.570;2022-07-23T02:12:53;6.67;;;5.70;;
3311;SDS011;1668;49.648;8.570;2022-07-23T02:15:21;8.63;;;5.70;;
3311;SDS011;1668;49.648;8.570;2022-07-23T02:17:48;6.50;;;5.10;;
3311;SDS011;1668;49.648;8.570;2022-07-23T02:20:15;6.63;;;5.23;;
3311;SDS011;1668;49.648;8.570;2022-07-23T02:22:42;6.00;;;5.40;;
3311;SDS011;1668;49.648;8.570;2022-07-23T02:25:09;6.87;;;5.03;;
3311;SDS011;1668;49.648;8.570;2022-07-23T02:27:36;5.77;;;5.10;;
3311;SDS011;1668;49.648;8.570;2022-07-23T02:30:04;8.53;;;5.50;;
3311;SDS011;1668;49.648;8.570;2022-07-23T02:32:33;6.50;;;5.20;;
3311;SDS011;1668;49.648;8.570;2022-07-23T02:35:00;6.30;;;5.70;;
3311;SDS011;1668;49.648;8.570;2022-07-23T02:37:27;5.73;;;4.90;;
3311;SDS011;1668;49.648;8.570;2022-07-23T02:39:54;10.07;;;5.93;;
3311;SDS011;1668;49.648;8.570;2022-07-23T02:42:21;6.37;;;5.67;;
3311;SDS011;1668;49.648;8.570;2022-07-23T02:44:48;9.07;;;5.60;;
3311;SDS011;1668;49.648;8.570;2022-07-23T02:47:15;6.00;;;5.40;;
3311;SDS011;1668;49.648;8.570;2022-07-23T02:49:44;6.20;;;5.60;;
3311;SDS011;1668;49.648;8.570;2022-07-23T02:52:11;7.50;;;5.60;;
3311;SDS011;1668;49.648;8.570;2022-07-23T02:54:38;9.10;;;6.30;;
3311;SDS011;1668;49.648;8.570;2022-07-23T02:57:05;7.17;;;5.70;;
3311;SDS011;1668;49.648;8.570;2022-07-23T02:59:32;7.10;;;6.00;;
3311;SDS011;1668;49.648;8.570;2022-07-23T03:01:58;7.90;;;6.17;;
3311;SDS011;1668;49.648;8.570;2022-07-23T03:04:25;10.20;;;5.93;;
3311;SDS011;1668;49.648;8.570;2022-07-23T03:06:54;7.23;;;6.23;;
3311;SDS011;1668;49.648;8.570;2022-07-23T03:09:21;6.80;;;5.70;;
3311;SDS011;1668;49.648;8.570;2022-07-23T03:11:48;6.60;;;5.60;;
3311;SDS011;1668;49.648;8.570;2022-07-23T03:14:14;6.67;;;5.30;;
3311;SDS011;1668;49.648;8.570;2022-07-23T03:16:41;9.00;;;5.40;;
3311;SDS011;1668;49.648;8.570;2022-07-23T03:19:08;6.30;;;5.57;;
3311;SDS011;1668;49.648;8.570;2022-07-23T03:21:35;8.43;;;6.17;;
3311;SDS011;1668;49.648;8.570;2022-07-23T03:24:07;7.70;;;6.00;;
3311;SDS011;1668;49.648;8.570;2022-07-23T03:26:35;6.47;;;5.77;;
3311;SDS011;1668;49.648;8.570;2022-07-23T03:29:02;6.73;;;5.80;;
3311;SDS011;1668;49.648;8.570;2022-07-23T03:31:29;11.10;;;6.20;;
3311;SDS011;1668;49.648;8.570;2022-07-23T03:33:56;8.70;;;5.67;;
3311;SDS011;1668;49.648;8.570;2022-07-23T03:36:23;6.40;;;5.70;;
3311;SDS011;1668;49.648;8.570;2022-07-23T03:38:50;7.40;;;5.73;;
3311;SDS011;1668;49.648;8.570;2022-07-23T03:41:19;10.37;;;5.90;;
3311;SDS011;1668;49.648;8.570;2022-07-23T03:43:46;6.33;;;5.60;;
3311;SDS011;1668;49.648;8.570;2022-07-23T03:46:13;7.17;;;5.87;;
3311;SDS011;1668;49.648;8.570;2022-07-23T03:48:41;8.00;;;5.50;;
3311;SDS011;1668;49.648;8.570;2022-07-23T03:51:07;9.10;;;6.30;;
3311;SDS011;1668;49.648;8.570;2022-07-23T03:53:34;6.10;;;5.20;;
3311;SDS011;1668;49.648;8.570;2022-07-23T03:56:01;8.23;;;5.70;;
3311;SDS011;1668;49.648;8.570;2022-07-23T03:58:29;6.67;;;6.00;;
3311;SDS011;1668;49.648;8.570;2022-07-23T04:00:56;7.40;;;6.30;;
3311;SDS011;1668;49.648;8.570;2022-07-23T04:03:23;8.87;;;6.60;;
3311;SDS011;1668;49.648;8.570;2022-07-23T04:05:50;10.60;;;7.10;;
3311;SDS011;1668;49.648;8.570;2022-07-23T04:08:17;6.20;;;5.57;;
3311;SDS011;1668;49.648;8.570;2022-07-23T04:10:44;8.60;;;5.67;;
3311;SDS011;1668;49.648;8.570;2022-07-23T04:13:11;7.53;;;6.77;;
3311;SDS011;1668;49.648;8.570;2022-07-23T04:15:39;8.80;;;6.47;;
3311;SDS011;1668;49.648;8.570;2022-07-23T04:18:06;7.60;;;6.90;;
3311;SDS011;1668;49.648;8.570;2022-07-23T04:20:33;6.60;;;5.77;;
3311;SDS011;1668;49.648;8.570;2022-07-23T04:23:00;8.37;;;6.73;;
3311;SDS011;1668;49.648;8.570;2022-07-23T04:25:27;7.67;;;5.87;;
3311;SDS011;1668;49.648;8.570;2022-07-23T04:27:54;7.37;;;5.97;;
3311;SDS011;1668;49.648;8.570;2022-07-23T04:30:21;9.73;;;6.83;;
3311;SDS011;1668;49.648;8.570;2022-07-23T04:32:49;8.57;;;6.63;;
3311;SDS011;1668;49.648;8.570;2022-07-23T04:35:16;13.80;;;6.50;;
3311;SDS011;1668;49.648;8.570;2022-07-23T04:37:43;8.10;;;6.50;;
3311;SDS011;1668;49.648;8.570;2022-07-23T04:40:10;8.93;;;7.07;;
3311;SDS011;1668;49.648;8.570;2022-07-23T04:42:38;8.83;;;6.70;;
3311;SDS011;1668;49.648;8.570;2022-07-23T04:45:05;8.93;;;6.83;;
3311;SDS011;1668;49.648;8.570;2022-07-23T04:47:33;8.00;;;6.77;;
3311;SDS011;1668;49.648;8.570;2022-07-23T04:50:02;8.10;;;7.20;;
3311;SDS011;1668;49.648;8.570;2022-07-23T04:52:29;8.80;;;7.30;;
3311;SDS011;1668;49.648;8.570;2022-07-23T04:54:56;8.80;;;7.23;;
3311;SDS011;1668;49.648;8.570;2022-07-23T04:57:23;8.70;;;6.73;;
3311;SDS011;1668;49.648;8.570;2022-07-23T04:59:50;8.70;;;7.00;;
3311;SDS011;1668;49.648;8.570;2022-07-23T05:02:17;8.73;;;7.20;;
3311;SDS011;1668;49.648;8.570;2022-07-23T05:04:44;7.97;;;6.47;;
3311;SDS011;1668;49.648;8.570;2022-07-23T05:07:12;10.70;;;7.30;;
3311;SDS011;1668;49.648;8.570;2022-07-23T05:09:39;10.23;;;6.83;;
3311;SDS011;1668;49.648;8.570;2022-07-23T05:12:06;9.20;;;7.60;;
3311;SDS011;1668;49.648;8.570;2022-07-23T05:14:33;7.10;;;6.40;;
3311;SDS011;1668;49.648;8.570;2022-07-23T05:17:01;7.40;;;6.50;;
3311;SDS011;1668;49.648;8.570;2022-07-23T05:19:27;8.80;;;7.30;;
3311;SDS011;1668;49.648;8.570;2022-07-23T05:21:54;7.80;;;6.83;;
3311;SDS011;1668;49.648;8.570;2022-07-23T05:24:23;9.73;;;8.40;;
3311;SDS011;1668;49.648;8.570;2022-07-23T05:26:50;7.87;;;6.90;;
3311;SDS011;1668;49.648;8.570;2022-07-23T05:29:17;7.70;;;6.90;;
3311;SDS011;1668;49.648;8.570;2022-07-23T05:31:44;8.20;;;7.40;;
3311;SDS011;1668;49.648;8.570;2022-07-23T05:34:11;8.47;;;7.60;;
3311;SDS011;1668;49.648;8.570;2022-07-23T05:36:38;8.73;;;7.37;;
3311;SDS011;1668;49.648;8.570;2022-07-23T05:39:05;8.70;;;7.37;;
3311;SDS011;1668;49.648;8.570;2022-07-23T05:41:33;11.67;;;7.17;;
3311;SDS011;1668;49.648;8.570;2022-07-23T05:44:00;9.17;;;6.43;;
3311;SDS011;1668;49.648;8.570;2022-07-23T05:46:27;8.50;;;6.50;;
3311;SDS011;1668;49.648;8.570;2022-07-23T05:48:54;7.80;;;6.70;;
3311;SDS011;1668;49.648;8.570;2022-07-23T05:51:21;9.50;;;6.73;;
3311;SDS011;1668;49.648;8.570;2022-07-23T05:53:48;9.70;;;7.03;;
3311;SDS011;1668;49.648;8.570;2022-07-23T05:56:15;8.07;;;7.07;;
3311;SDS011;1668;49.648;8.570;2022-07-23T05:58:44;10.57;;;7.57;;
3311;SDS011;1668;49.648;8.570;2022-07-23T06:01:11;9.07;;;7.57;;
3311;SDS011;1668;49.648;8.570;2022-07-23T06:03:38;8.10;;;6.90;;
3311;SDS011;1668;49.648;8.570;2022-07-23T06:06:05;7.67;;;6.83;;
3311;SDS011;1668;49.648;8.570;2022-07-23T06:08:32;9.07;;;7.10;;
3311;SDS011;1668;49.648;8.570;2022-07-23T06:10:59;7.40;;;6.53;;
3311;SDS011;1668;49.648;8.570;2022-07-23T06:13:26;9.70;;;7.57;;
3311;SDS011;1668;49.648;8.570;2022-07-23T06:15:55;10.07;;;7.13;;
3311;SDS011;1668;49.648;8.570;2022-07-23T06:18:21;10.30;;;7.80;;
3311;SDS011;1668;49.648;8.570;2022-07-23T06:20:48;10.80;;;6.73;;
3311;SDS011;1668;49.648;8.570;2022-07-23T06:23:15;11.03;;;7.60;;
3311;SDS011;1668;49.648;8.570;2022-07-23T06:25:42;8.07;;;7.13;;
3311;SDS011;1668;49.648;8.570;2022-07-23T06:28:09;10.40;;;7.20;;
3311;SDS011;1668;49.648;8.570;2022-07-23T06:30:36;8.47;;;7.47;;
3311;SDS011;1668;49.648;8.570;2022-07-23T06:33:04;7.70;;;6.87;;
3311;SDS011;1668;49.648;8.570;2022-07-23T06:35:31;8.53;;;7.53;;
3311;SDS011;1668;49.648;8.570;2022-07-23T06:37:59;9.40;;;7.57;;
3311;SDS011;1668;49.648;8.570;2022-07-23T06:40:26;7.77;;;6.97;;
3311;SDS011;1668;49.648;8.570;2022-07-23T06:42:53;9.30;;;7.73;;
3311;SDS011;1668;49.648;8.570;2022-07-23T06:45:20;8.97;;;7.20;;
3311;SDS011;1668;49.648;8.570;2022-07-23T06:47:47;9.00;;;6.80;;
3311;SDS011;1668;49.648;8.570;2022-07-23T06:50:16;12.00;;;6.60;;
3311;SDS011;1668;49.648;8.570;2022-07-23T06:52:47;8.97;;;6.83;;
3311;SDS011;1668;49.648;8.570;2022-07-23T06:55:14;9.90;;;7.47;;
3311;SDS011;1668;49.648;8.570;2022-07-23T06:57:41;9.47;;;6.60;;
3311;SDS011;1668;49.648;8.570;2022-07-23T07:00:09;8.47;;;7.23;;
3311;SDS011;1668;49.648;8.570;2022-07-23T07:02:36;7.70;;;6.87;;
3311;SDS011;1668;49.648;8.570;2022-07-23T07:05:03;7.23;;;6.53;;
3311;SDS011;1668;49.648;8.570;2022-07-23T07:07:32;7.93;;;7.10;;
3311;SDS011;1668;49.648;8.570;2022-07-23T07:09:59;9.10;;;6.87;;
3311;SDS011;1668;49.648;8.570;2022-07-23T07:12:26;9.83;;;6.30;;
3311;SDS011;1668;49.648;8.570;2022-07-23T07:14:53;10.17;;;5.70;;
3311;SDS011;1668;49.648;8.570;2022-07-23T07:17:21;7.50;;;6.80;;
3311;SDS011;1668;49.648;8.570;2022-07-23T07:19:48;9.47;;;6.43;;
3311;SDS011;1668;49.648;8.570;2022-07-23T07:22:15;9.17;;;6.83;;
3311;SDS011;1668;49.648;8.570;2022-07-23T07:24:44;7.30;;;6.60;;
3311;SDS011;1668;49.648;8.570;2022-07-23T07:27:11;11.37;;;7.10;;
3311;SDS011;1668;49.648;8.570;2022-07-23T07:29:38;8.87;;;6.93;;
3311;SDS011;1668;49.648;8.570;2022-07-23T07:32:05;8.77;;;7.47;;
3311;SDS011;1668;49.648;8.570;2022-07-23T07:34:32;8.87;;;7.60;;
3311;SDS011;1668;49.648;8.570;2022-07-23T07:36:59;7.97;;;6.90;;
3311;SDS011;1668;49.648;8.570;2022-07-23T07:39:26;7.60;;;6.80;;
3311;SDS011;1668;49.648;8.570;2022-07-23T07:41:54;7.57;;;6.77;;
3311;SDS011;1668;49.648;8.570;2022-07-23T07:44:21;8.53;;;6.93;;
3311;SDS011;1668;49.648;8.570;2022-07-23T07:46:48;7.37;;;6.60;;
3311;SDS011;1668;49.648;8.570;2022-07-23T07:49:15;8.43;;;7.20;;
3311;SDS011;1668;49.648;8.570;2022-07-23T07:51:44;10.40;;;7.33;;
3311;SDS011;1668;49.648;8.570;2022-07-23T07:54:11;8.30;;;6.70;;
3311;SDS011;1668;49.648;8.570;2022-07-23T07:56:38;7.93;;;7.13;;
3311;SDS011;1668;49.648;8.570;2022-07-23T07:59:07;9.60;;;7.23;;
3311;SDS011;1668;49.648;8.570;2022-07-23T08:01:33;12.20;;;7.00;;
3311;SDS011;1668;49.648;8.570;2022-07-23T08:04:00;9.43;;;7.10;;
3311;SDS011;1668;49.648;8.570;2022-07-23T08:06:27;10.07;;;7.20;;
3311;SDS011;1668;49.648;8.570;2022-07-23T08:08:54;7.70;;;6.90;;
3311;SDS011;1668;49.648;8.570;2022-07-23T08:11:21;8.30;;;7.07;;
3311;SDS011;1668;49.648;8.570;2022-07-23T08:13:48;9.00;;;7.47;;
3311;SDS011;1668;49.648;8.570;2022-07-23T08:16:16;9.20;;;8.00;;
3311;SDS011;1668;49.648;8.570;2022-07-23T08:18:43;8.30;;;7.33;;
3311;SDS011;1668;49.648;8.570;2022-07-23T08:21:10;8.37;;;7.40;;
3311;SDS011;1668;49.648;8.570;2022-07-23T08:23:37;10.73;;;8.00;;
3311;SDS011;1668;49.648;8.570;2022-07-23T08:26:04;9.93;;;8.43;;
3311;SDS011;1668;49.648;8.570;2022-07-23T08:28:31;8.80;;;6.80;;
3311;SDS011;1668;49.648;8.570;2022-07-23T08:30:59;8.50;;;7.40;;
3311;SDS011;1668;49.648;8.570;2022-07-23T08:33:27;10.43;;;7.90;;
3311;SDS011;1668;49.648;8.570;2022-07-23T08:35:54;9.50;;;8.13;;
3311;SDS011;1668;49.648;8.570;2022-07-23T08:38:21;9.40;;;7.20;;
3311;SDS011;1668;49.648;8.570;2022-07-23T08:40:50;10.70;;;8.40;;
3311;SDS011;1668;49.648;8.570;2022-07-23T08:43:19;8.17;;;6.73;;
3311;SDS011;1668;49.648;8.570;2022-07-23T08:45:48;7.67;;;6.87;;
3311;SDS011;1668;49.648;8.570;2022-07-23T08:48:17;8.30;;;7.37;;
3311;SDS011;1668;49.648;8.570;2022-07-23T08:50:47;10.03;;;7.70;;
3311;SDS011;1668;49.648;8.570;2022-07-23T08:53:15;7.83;;;7.03;;
3311;SDS011;1668;49.648;8.570;2022-07-23T08:55:43;8.50;;;6.53;;
3311;SDS011;1668;49.648;8.570;2022-07-23T08:58:11;9.40;;;7.17;;
3311;SDS011;1668;49.648;8.570;2022-07-23T09:00:39;7.93;;;7.10;;
3311;SDS011;1668;49.648;8.570;2022-07-23T09:03:06;8.10;;;7.30;;
3311;SDS011;1668;49.648;8.570;2022-07-23T09:05:33;7.57;;;6.77;;
3311;SDS011;1668;49.648;8.570;2022-07-23T09:08:08;7.43;;;6.73;;
3311;SDS011;1668;49.648;8.570;2022-07-23T09:10:48;9.37;;;7.30;;
3311;SDS011;1668;49.648;8.570;2022-07-23T09:16:04;9.67;;;7.27;;
3311;SDS011;1668;49.648;8.570;2022-07-23T09:18:34;7.77;;;6.83;;
3311;SDS011;1668;49.648;8.570;2022-07-23T09:21:11;8.53;;;7.63;;
3311;SDS011;1668;49.648;8.570;2022-07-23T09:23:42;7.27;;;6.57;;
3311;SDS011;1668;49.648;8.570;2022-07-23T09:26:18;10.03;;;8.00;;
3311;SDS011;1668;49.648;8.570;2022-07-23T09:28:51;7.97;;;7.07;;
3311;SDS011;1668;49.648;8.570;2022-07-23T09:31:20;9.60;;;7.40;;
3311;SDS011;1668;49.648;8.570;2022-07-23T09:33:47;9.23;;;7.13;;
3311;SDS011;1668;49.648;8.570;2022-07-23T09:36:14;11.47;;;7.30;;
3311;SDS011;1668;49.648;8.570;2022-07-23T09:38:50;7.73;;;6.87;;
3311;SDS011;1668;49.648;8.570;2022-07-23T09:41:17;10.07;;;7.33;;
3311;SDS011;1668;49.648;8.570;2022-07-23T09:43:44;8.87;;;7.47;;
3311;SDS011;1668;49.648;8.570;2022-07-23T09:46:17;7.63;;;6.43;;
3311;SDS011;1668;49.648;8.570;2022-07-23T09:48:49;8.80;;;7.90;;
3311;SDS011;1668;49.648;8.570;2022-07-23T09:51:21;10.73;;;7.43;;
3311;SDS011;1668;49.648;8.570;2022-07-23T09:53:53;8.83;;;7.60;;
3311;SDS011;1668;49.648;8.570;2022-07-23T09:56:21;8.93;;;7.00;;
3311;SDS011;1668;49.648;8.570;2022-07-23T09:58:49;9.23;;;7.80;;
3311;SDS011;1668;49.648;8.570;2022-07-23T10:01:26;12.47;;;6.90;;
3311;SDS011;1668;49.648;8.570;2022-07-23T10:03:54;7.90;;;7.03;;
3311;SDS011;1668;49.648;8.570;2022-07-23T10:06:22;8.83;;;7.00;;
3311;SDS011;1668;49.648;8.570;2022-07-23T10:08:50;20.00;;;8.30;;
3311;SDS011;1668;49.648;8.570;2022-07-23T10:11:20;18.63;;;7.40;;
3311;SDS011;1668;49.648;8.570;2022-07-23T10:13:50;25.10;;;9.30;;
3311;SDS011;1668;49.648;8.570;2022-07-23T10:16:21;46.40;;;12.07;;
3311;SDS011;1668;49.648;8.570;2022-07-23T10:18:48;31.90;;;10.33;;
3311;SDS011;1668;49.648;8.570;2022-07-23T10:21:18;13.23;;;7.83;;
3311;SDS011;1668;49.648;8.570;2022-07-23T10:23:55;9.63;;;7.83;;
3311;SDS011;1668;49.648;8.570;2022-07-23T10:26:32;10.40;;;7.87;;
3311;SDS011;1668;49.648;8.570;2022-07-23T10:29:11;8.10;;;7.30;;
3311;SDS011;1668;49.648;8.570;2022-07-23T10:31:47;11.03;;;7.20;;
3311;SDS011;1668;49.648;8.570;2022-07-23T10:34:25;23.60;;;10.07;;
3311;SDS011;1668;49.648;8.570;2022-07-23T10:36:59;52.93;;;10.20;;
3311;SDS011;1668;49.648;8.570;2022-07-23T10:39:32;11.03;;;7.97;;
3311;SDS011;1668;49.648;8.570;2022-07-23T10:42:10;10.83;;;8.60;;
3311;SDS011;1668;49.648;8.570;2022-07-23T10:44:39;12.27;;;8.30;;
3311;SDS011;1668;49.648;8.570;2022-07-23T10:47:08;8.43;;;7.40;;
3311;SDS011;1668;49.648;8.570;2022-07-23T10:50:18;8.50;;;7.07;;
3311;SDS011;1668;49.648;8.570;2022-07-23T10:55:48;8.60;;;7.23;;
3311;SDS011;1668;49.648;8.570;2022-07-23T10:58:22;7.73;;;6.97;;
3311;SDS011;1668;49.648;8.570;2022-07-23T11:03:58;9.50;;;7.30;;
3311;SDS011;1668;49.648;8.570;2022-07-23T11:09:26;9.33;;;6.97;;
3311;SDS011;1668;49.648;8.570;2022-07-23T11:15:00;8.20;;;7.13;;
3311;SDS011;1668;49.648;8.570;2022-07-23T11:17:30;8.63;;;6.90;;
3311;SDS011;1668;49.648;8.570;2022-07-23T11:22:49;7.30;;;6.60;;
3311;SDS011;1668;49.648;8.570;2022-07-23T11:25:34;7.40;;;6.70;;
3311;SDS011;1668;49.648;8.570;2022-07-23T11:28:15;7.50;;;6.80;;
3311;SDS011;1668;49.648;8.570;2022-07-23T11:30:47;8.73;;;7.23;;
3311;SDS011;1668;49.648;8.570;2022-07-23T11:33:19;9.27;;;6.50;;
3311;SDS011;1668;49.648;8.570;2022-07-23T11:35:47;7.00;;;6.33;;
3311;SDS011;1668;49.648;8.570;2022-07-23T11:38:25;9.97;;;7.13;;
3311;SDS011;1668;49.648;8.570;2022-07-23T11:40:53;8.63;;;7.50;;
3311;SDS011;1668;49.648;8.570;2022-07-23T11:43:22;8.70;;;7.63;;
3311;SDS011;1668;49.648;8.570;2022-07-23T11:45:52;7.63;;;6.80;;
3311;SDS011;1668;49.648;8.570;2022-07-23T11:48:21;7.33;;;6.63;;
3311;SDS011;1668;49.648;8.570;2022-07-23T11:50:50;7.57;;;6.30;;
3311;SDS011;1668;49.648;8.570;2022-07-23T11:53:21;8.00;;;6.53;;
3311;SDS011;1668;49.648;8.570;2022-07-23T11:55:49;8.33;;;6.43;;
3311;SDS011;1668;49.648;8.570;2022-07-23T11:58:16;7.77;;;7.00;;
3311;SDS011;1668;49.648;8.570;2022-07-23T12:00:49;7.83;;;7.03;;
3311;SDS011;1668;49.648;8.570;2022-07-23T12:03:21;9.20;;;7.00;;
3311;SDS011;1668;49.648;8.570;2022-07-23T12:05:48;10.00;;;6.90;;
3311;SDS011;1668;49.648;8.570;2022-07-23T12:08:15;7.87;;;7.07;;
3311;SDS011;1668;49.648;8.570;2022-07-23T12:10:43;6.80;;;6.20;;
3311;SDS011;1668;49.648;8.570;2022-07-23T12:13:12;7.30;;;6.60;;
3311;SDS011;1668;49.648;8.570;2022-07-23T12:15:41;7.70;;;6.43;;
3311;SDS011;1668;49.648;8.570;2022-07-23T12:18:11;7.23;;;6.50;;
3311;SDS011;1668;49.648;8.570;2022-07-23T12:20:41;10.23;;;6.60;;
3311;SDS011;1668;49.648;8.570;2022-07-23T12:23:11;9.47;;;6.80;;
3311;SDS011;1668;49.648;8.570;2022-07-23T12:25:40;8.30;;;7.50;;
3311;SDS011;1668;49.648;8.570;2022-07-23T12:28:09;8.10;;;6.37;;
3311;SDS011;1668;49.648;8.570;2022-07-23T12:30:38;13.93;;;7.13;;
3311;SDS011;1668;49.648;8.570;2022-07-23T12:33:08;7.80;;;6.50;;
3311;SDS011;1668;49.648;8.570;2022-07-23T12:35:38;8.67;;;7.00;;
3311;SDS011;1668;49.648;8.570;2022-07-23T12:38:07;9.80;;;6.83;;
3311;SDS011;1668;49.648;8.570;2022-07-23T12:40:37;7.43;;;6.53;;
3311;SDS011;1668;49.648;8.570;2022-07-23T12:43:10;7.47;;;6.77;;
3311;SDS011;1668;49.648;8.570;2022-07-23T12:45:45;9.90;;;6.60;;
3311;SDS011;1668;49.648;8.570;2022-07-23T12:48:15;10.30;;;6.50;;
3311;SDS011;1668;49.648;8.570;2022-07-23T12:50:48;9.00;;;6.20;;
3311;SDS011;1668;49.648;8.570;2022-07-23T12:53:17;8.03;;;7.23;;
3311;SDS011;1668;49.648;8.570;2022-07-23T12:55:46;7.97;;;7.17;;
3311;SDS011;1668;49.648;8.570;2022-07-23T12:58:15;7.80;;;7.00;;
3311;SDS011;1668;49.648;8.570;2022-07-23T13:00:51;6.90;;;6.20;;
3311;SDS011;1668;49.648;8.570;2022-07-23T13:03:23;7.07;;;6.37;;
3311;SDS011;1668;49.648;8.570;2022-07-23T13:05:53;7.40;;;6.37;;
3311;SDS011;1668;49.648;8.570;2022-07-23T13:08:22;11.33;;;6.90;;
3311;SDS011;1668;49.648;8.570;2022-07-23T13:10:49;9.93;;;7.00;;
3311;SDS011;1668;49.648;8.570;2022-07-23T13:13:20;7.60;;;6.90;;
3311;SDS011;1668;49.648;8.570;2022-07-23T13:15:48;12.10;;;6.80;;
3311;SDS011;1668;49.648;8.570;2022-07-23T13:18:16;7.20;;;6.50;;
3311;SDS011;1668;49.648;8.570;2022-07-23T13:20:44;6.90;;;6.30;;
3311;SDS011;1668;49.648;8.570;2022-07-23T13:23:13;7.57;;;6.77;;
3311;SDS011;1668;49.648;8.570;2022-07-23T13:25:41;8.30;;;6.80;;
3311;SDS011;1668;49.648;8.570;2022-07-23T13:28:08;7.90;;;6.57;;
3311;SDS011;1668;49.648;8.570;2022-07-23T13:30:36;6.83;;;6.13;;
3311;SDS011;1668;49.648;8.570;2022-07-23T13:33:03;7.77;;;6.90;;
3311;SDS011;1668;49.648;8.570;2022-07-23T13:35:31;7.17;;;6.47;;
3311;SDS011;1668;49.648;8.570;2022-07-23T13:37:58;8.50;;;7.17;;
3311;SDS011;1668;49.648;8.570;2022-07-23T13:40:26;9.13;;;6.30;;
3311;SDS011;1668;49.648;8.570;2022-07-23T13:42:53;8.17;;;7.23;;
3311;SDS011;1668;49.648;8.570;2022-07-23T13:45:20;9.23;;;6.90;;
3311;SDS011;1668;49.648;8.570;2022-07-23T13:47:47;8.33;;;6.80;;
3311;SDS011;1668;49.648;8.570;2022-07-23T13:50:14;8.20;;;6.90;;
3311;SDS011;1668;49.648;8.570;2022-07-23T13:52:42;8.07;;;6.70;;
3311;SDS011;1668;49.648;8.570;2022-07-23T13:55:09;7.70;;;6.63;;
3311;SDS011;1668;49.648;8.570;2022-07-23T13:57:38;7.70;;;6.63;;
3311;SDS011;1668;49.648;8.570;2022-07-23T14:00:05;7.20;;;6.50;;
3311;SDS011;1668;49.648;8.570;2022-07-23T14:02:35;7.60;;;6.50;;
3311;SDS011;1668;49.648;8.570;2022-07-23T14:05:04;9.33;;;6.77;;
3311;SDS011;1668;49.648;8.570;2022-07-23T14:07:31;7.07;;;6.37;;
3311;SDS011;1668;49.648;8.570;2022-07-23T14:09:59;7.07;;;6.40;;
3311;SDS011;1668;49.648;8.570;2022-07-23T14:12:26;7.23;;;5.90;;
3311;SDS011;1668;49.648;8.570;2022-07-23T14:14:55;7.23;;;6.53;;
3311;SDS011;1668;49.648;8.570;2022-07-23T14:17:22;7.40;;;6.67;;
3311;SDS011;1668;49.648;8.570;2022-07-23T14:19:49;10.23;;;6.30;;
3311;SDS011;1668;49.648;8.570;2022-07-23T14:22:17;8.00;;;6.07;;
3311;SDS011;1668;49.648;8.570;2022-07-23T14:24:44;7.53;;;6.73;;
3311;SDS011;1668;49.648;8.570;2022-07-23T14:27:11;7.20;;;6.50;;
3311;SDS011;1668;49.648;8.570;2022-07-23T14:29:38;7.60;;;6.10;;
3311;SDS011;1668;49.648;8.570;2022-07-23T14:32:06;7.40;;;6.60;;
3311;SDS011;1668;49.648;8.570;2022-07-23T14:34:34;8.60;;;6.73;;
3311;SDS011;1668;49.648;8.570;2022-07-23T14:37:02;7.70;;;6.00;;
3311;SDS011;1668;49.648;8.570;2022-07-23T14:39:29;8.33;;;6.33;;
3311;SDS011;1668;49.648;8.570;2022-07-23T14:41:56;7.47;;;6.77;;
3311;SDS011;1668;49.648;8.570;2022-07-23T14:44:23;8.60;;;6.07;;
3311;SDS011;1668;49.648;8.570;2022-07-23T14:46:50;7.97;;;6.50;;
3311;SDS011;1668;49.648;8.570;2022-07-23T14:49:18;6.73;;;6.13;;
3311;SDS011;1668;49.648;8.570;2022-07-23T14:51:45;7.10;;;6.00;;
3311;SDS011;1668;49.648;8.570;2022-07-23T14:54:12;6.40;;;5.90;;
3311;SDS011;1668;49.648;8.570;2022-07-23T14:56:39;6.50;;;5.90;;
3311;SDS011;1668;49.648;8.570;2022-07-23T14:59:06;7.27;;;6.40;;
3311;SDS011;1668;49.648;8.570;2022-07-23T15:01:33;6.27;;;5.67;;
3311;SDS011;1668;49.648;8.570;2022-07-23T15:04:01;6.50;;;5.90;;
3311;SDS011;1668;49.648;8.570;2022-07-23T15:06:29;7.87;;;6.40;;
3311;SDS011;1668;49.648;8.570;2022-07-23T15:08:56;7.00;;;6.07;;
3311;SDS011;1668;49.648;8.570;2022-07-23T15:11:23;8.57;;;6.20;;
3311;SDS011;1668;49.648;8.570;2022-07-23T15:13:50;6.90;;;6.20;;
3311;SDS011;1668;49.648;8.570;2022-07-23T15:16:17;6.13;;;5.07;;
3311;SDS011;1668;49.648;8.570;2022-07-23T15:18:49;7.20;;;6.43;;
3311;SDS011;1668;49.648;8.570;2022-07-23T15:21:16;7.70;;;5.93;;
3311;SDS011;1668;49.648;8.570;2022-07-23T15:23:45;6.20;;;5.63;;
3311;SDS011;1668;49.648;8.570;2022-07-23T15:26:11;7.43;;;6.23;;
3311;SDS011;1668;49.648;8.570;2022-07-23T15:28:41;8.77;;;7.87;;
3311;SDS011;1668;49.648;8.570;2022-07-23T15:31:08;8.27;;;6.73;;
3311;SDS011;1668;49.648;8.570;2022-07-23T15:33:35;6.90;;;5.90;;
3311;SDS011;1668;49.648;8.570;2022-07-23T15:36:02;11.07;;;6.27;;